createdAt,value
2017-08-24T00:00:07.416Z,"    0"
2017-08-24T00:05:03.900Z,"    0"
2017-08-24T00:10:00.085Z,"    0"
2017-08-24T00:14:55.938Z,"    0"
2017-08-24T00:19:51.696Z,"    0"
2017-08-24T00:24:48.947Z,"    0"
2017-08-24T00:29:44.550Z,"    0"
2017-08-24T00:34:40.930Z,"    0"
2017-08-24T00:39:36.953Z,"    0"
2017-08-24T00:44:34.059Z,"    0"
2017-08-24T00:49:30.549Z,"    0"
2017-08-24T00:54:26.184Z,"    0"
2017-08-24T00:59:22.911Z,"    0"
2017-08-24T01:04:19.316Z,"    0"
2017-08-24T01:09:16.139Z,"    0"
2017-08-24T01:14:11.810Z,"    0"
2017-08-24T01:19:07.870Z,"    0"
2017-08-24T01:24:03.768Z,"    0"
2017-08-24T01:28:59.700Z,"    0"
2017-08-24T01:33:56.537Z,"    0"
2017-08-24T01:38:51.980Z,"    0"
2017-08-24T01:43:47.774Z,"    0"
2017-08-24T01:48:44.096Z,"    0"
2017-08-24T01:53:40.008Z,"    0"
2017-08-24T01:58:35.873Z,"    0"
2017-08-24T02:03:31.641Z,"    0"
2017-08-24T02:08:27.924Z,"    0"
2017-08-24T02:13:24.132Z,"    0"
2017-08-24T02:18:20.950Z,"    0"
2017-08-24T02:23:16.610Z,"    0"
2017-08-24T02:28:12.918Z,"    0"
2017-08-24T02:33:09.919Z,"    0"
2017-08-24T02:38:06.686Z,"    0"
2017-08-24T02:43:02.184Z,"    0"
2017-08-24T02:47:59.216Z,"    0"
2017-08-24T02:52:55.006Z,"    0"
2017-08-24T02:57:51.812Z,"    0"
2017-08-24T03:02:48.342Z,"    0"
2017-08-24T03:07:44.387Z,"    0"
2017-08-24T03:12:40.113Z,"    0"
2017-08-24T03:17:36.040Z,"    0"
2017-08-24T03:22:31.935Z,"    0"
2017-08-24T03:27:27.793Z,"    0"
2017-08-24T03:32:24.877Z,"    0"
2017-08-24T03:37:20.303Z,"    0"
2017-08-24T03:42:16.186Z,"    0"
2017-08-24T03:47:12.078Z,"    0"
2017-08-24T03:52:07.929Z,"    0"
2017-08-24T03:57:04.238Z,"    0"
2017-08-24T04:02:00.085Z,"    0"
2017-08-24T04:06:57.022Z,"    0"
2017-08-24T04:11:52.564Z,"    4"
2017-08-24T04:16:48.403Z,"    8"
2017-08-24T04:21:45.123Z,"   20"
2017-08-24T04:26:41.183Z,"   36"
2017-08-24T04:31:37.031Z,"   92"
2017-08-24T04:36:32.803Z,"  140"
2017-08-24T04:41:28.680Z,"  228"
2017-08-24T04:46:26.906Z,"  324"
2017-08-24T04:51:22.160Z,"  452"
2017-08-24T04:56:18.089Z,"  612"
2017-08-24T05:01:13.805Z,"  848"
2017-08-24T05:06:10.115Z,"  940"
2017-08-24T05:11:06.054Z," 1048"
2017-08-24T05:16:01.982Z," 1348"
2017-08-24T05:20:57.553Z," 1668"
2017-08-24T05:25:53.781Z," 1964"
2017-08-24T05:30:49.717Z," 2064"
2017-08-24T05:35:45.720Z," 2144"
2017-08-24T05:40:41.688Z," 2488"
2017-08-24T05:45:38.821Z," 2568"
2017-08-24T05:50:34.417Z," 3120"
2017-08-24T05:55:30.531Z," 2812"
2017-08-24T06:00:26.412Z," 1956"
2017-08-24T06:05:23.122Z," 1800"
2017-08-24T06:10:18.943Z," 1500"
2017-08-24T06:15:14.844Z," 2236"
2017-08-24T06:20:10.831Z," 2480"
2017-08-24T06:25:06.917Z," 2760"
2017-08-24T06:30:02.853Z," 3296"
2017-08-24T06:34:58.462Z," 2672"
2017-08-24T06:39:54.388Z," 3460"
2017-08-24T06:44:51.372Z," 3412"
2017-08-24T06:49:46.988Z," 3576"
2017-08-24T06:54:43.689Z," 3264"
2017-08-24T06:59:40.492Z," 3408"
2017-08-24T07:04:37.502Z," 2636"
2017-08-24T07:09:33.950Z," 2640"
2017-08-24T07:14:29.617Z," 3184"
2017-08-24T07:19:25.225Z," 4012"
2017-08-24T07:24:21.446Z," 3520"
2017-08-24T07:29:17.571Z," 5236"
2017-08-24T07:34:14.560Z," 3868"
2017-08-24T07:39:10.738Z," 4520"
2017-08-24T07:44:06.665Z," 6632"
2017-08-24T07:49:02.672Z," 6508"
2017-08-24T07:53:59.753Z," 4560"
2017-08-24T07:58:55.166Z," 4880"
2017-08-24T08:03:51.305Z," 7664"
2017-08-24T08:08:48.486Z," 8296"
2017-08-24T08:13:44.156Z," 7648"
2017-08-24T08:18:40.097Z," 6524"
2017-08-24T08:23:37.101Z," 7788"
2017-08-24T08:28:32.974Z," 5560"
2017-08-24T08:33:29.089Z,14240
2017-08-24T08:38:25.612Z,16376
2017-08-24T08:43:23.416Z,19360
2017-08-24T08:48:19.544Z,14200
2017-08-24T08:53:16.684Z,15296
2017-08-24T08:58:12.576Z,14636
2017-08-24T09:03:08.367Z,10700
2017-08-24T09:08:04.105Z,14720
2017-08-24T09:13:00.330Z,15412
2017-08-24T09:17:56.508Z,17484
2017-08-24T09:22:52.442Z,17544
2017-08-24T09:27:49.485Z,16384
2017-08-24T09:32:46.172Z,20000
2017-08-24T09:37:41.820Z,19808
2017-08-24T09:42:39.116Z,20896
2017-08-24T09:47:36.053Z,22912
2017-08-24T09:52:32.018Z,17248
2017-08-24T09:57:28.491Z,14548
2017-08-24T10:02:24.384Z,25568
2017-08-24T10:07:20.630Z,13068
2017-08-24T10:12:16.279Z,46688
2017-08-24T10:17:13.130Z,55232
2017-08-24T10:22:10.588Z,13856
2017-08-24T10:27:05.989Z,12152
2017-08-24T10:32:02.886Z,31808
2017-08-24T10:36:58.869Z,39584
2017-08-24T10:41:54.930Z,12620
2017-08-24T10:46:50.621Z,14676
2017-08-24T10:51:46.889Z,15712
2017-08-24T10:56:42.768Z,13620
2017-08-24T11:01:38.271Z,15032
2017-08-24T11:06:34.790Z,40032
2017-08-24T11:11:32.746Z,24576
2017-08-24T11:16:27.758Z,14212
2017-08-24T11:21:24.305Z,15712
2017-08-24T11:26:20.131Z,26368
2017-08-24T11:31:17.591Z,17504
2017-08-24T11:36:13.359Z,37600
2017-08-24T11:41:09.726Z,27424
2017-08-24T11:46:07.084Z,42976
2017-08-24T11:51:04.776Z,40000
2017-08-24T11:56:02.366Z,37376
2017-08-24T12:00:59.103Z,40608
2017-08-24T12:05:55.275Z,30560
2017-08-24T12:10:50.174Z,37088
2017-08-24T12:15:47.163Z,16944
2017-08-24T12:20:41.030Z,11976
2017-08-24T12:25:35.982Z,15740
2017-08-24T12:30:33.406Z,18432
2017-08-24T12:35:28.773Z,16916
2017-08-24T12:40:24.326Z,18848
2017-08-24T12:45:20.240Z,15420
2017-08-24T12:50:17.084Z,15672
2017-08-24T12:55:12.662Z,14324
2017-08-24T13:00:09.255Z,44800
2017-08-24T13:05:06.393Z,13120
2017-08-24T13:10:02.218Z,13636
2017-08-24T13:14:59.234Z,14116
2017-08-24T13:19:56.373Z,17216
2017-08-24T13:24:52.165Z,20992
2017-08-24T13:29:48.040Z,11784
2017-08-24T13:34:43.781Z,12196
2017-08-24T13:39:39.913Z,11832
2017-08-24T13:44:36.636Z," 6724"
2017-08-24T13:49:33.147Z,10444
2017-08-24T13:54:30.094Z,11788
2017-08-24T13:59:25.968Z," 9964"
2017-08-24T14:04:21.886Z," 8716"
2017-08-24T14:09:18.916Z," 7776"
2017-08-24T14:14:14.985Z," 9148"
2017-08-24T14:19:11.968Z," 9264"
2017-08-24T14:24:07.645Z," 9112"
2017-08-24T14:29:03.868Z," 8452"
2017-08-24T14:34:00.218Z," 9724"
2017-08-24T14:38:56.672Z," 8316"
2017-08-24T14:43:52.843Z," 7720"
2017-08-24T14:48:49.743Z," 7632"
2017-08-24T14:53:45.477Z," 9648"
2017-08-24T14:58:41.615Z," 5688"
2017-08-24T15:03:37.323Z," 6180"
2017-08-24T15:08:33.140Z," 5180"
2017-08-24T15:13:29.123Z," 6208"
2017-08-24T15:18:24.914Z," 7424"
2017-08-24T15:23:20.797Z," 7276"
2017-08-24T15:28:16.798Z," 6164"
2017-08-24T15:33:12.738Z," 7220"
2017-08-24T15:38:08.906Z," 5880"
2017-08-24T15:43:05.052Z," 4844"
2017-08-24T15:48:00.972Z," 5204"
2017-08-24T15:52:58.972Z," 5068"
2017-08-24T15:57:54.436Z," 4628"
2017-08-24T16:02:50.203Z," 3920"
2017-08-24T16:07:45.817Z," 3500"
2017-08-24T16:12:43.645Z," 3700"
2017-08-24T16:17:39.076Z," 3932"
2017-08-24T16:22:34.946Z," 3584"
2017-08-24T16:27:30.814Z," 3988"
2017-08-24T16:32:27.601Z," 4076"
2017-08-24T16:37:24.243Z," 4432"
2017-08-24T16:42:19.901Z," 4464"
2017-08-24T16:47:15.779Z," 3936"
2017-08-24T16:52:11.713Z," 3448"
2017-08-24T16:57:08.478Z," 2848"
2017-08-24T17:02:03.949Z," 2452"
2017-08-24T17:06:59.710Z," 2204"
2017-08-24T17:11:56.495Z," 1772"
2017-08-24T17:16:53.181Z," 1660"
2017-08-24T17:21:50.069Z," 1472"
2017-08-24T17:26:45.401Z," 1368"
2017-08-24T17:31:41.569Z," 1320"
2017-08-24T17:36:38.447Z," 1212"
2017-08-24T17:41:34.985Z," 1112"
2017-08-24T17:46:30.512Z,"  960"
2017-08-24T17:51:27.356Z,"  892"
2017-08-24T17:56:22.960Z,"  764"
2017-08-24T18:01:18.854Z,"  632"
2017-08-24T18:06:14.828Z,"  516"
2017-08-24T18:11:10.872Z,"  396"
2017-08-24T18:16:06.697Z,"  304"
2017-08-24T18:21:02.574Z,"  220"
2017-08-24T18:25:58.241Z,"  144"
2017-08-24T18:30:54.159Z,"   80"
2017-08-24T18:35:49.961Z,"   52"
2017-08-24T18:40:47.268Z,"   32"
2017-08-24T18:45:42.743Z,"   16"
2017-08-24T18:50:38.732Z,"    8"
2017-08-24T18:55:35.591Z,"    4"
2017-08-24T19:00:31.240Z,"    0"
2017-08-24T19:05:27.069Z,"    0"
2017-08-24T19:10:23.715Z,"    0"
2017-08-24T19:15:20.176Z,"    0"
2017-08-24T19:20:17.104Z,"    0"
2017-08-24T19:25:12.648Z,"    0"
2017-08-24T19:30:08.688Z,"    0"
2017-08-24T19:35:04.517Z,"    0"
2017-08-24T19:40:00.381Z,"    0"
2017-08-24T19:44:56.338Z,"    0"
2017-08-24T19:49:52.274Z,"    0"
2017-08-24T19:54:48.202Z,"    0"
2017-08-24T19:59:44.067Z,"    0"
2017-08-24T20:04:39.911Z,"    0"
2017-08-24T20:09:36.726Z,"    0"
2017-08-24T20:14:33.714Z,"    0"
2017-08-24T20:19:30.277Z,"    0"
2017-08-24T20:24:26.795Z,"    0"
2017-08-24T20:29:22.748Z,"    0"
2017-08-24T20:34:18.548Z,"    0"
2017-08-24T20:39:14.439Z,"    0"
2017-08-24T20:44:10.139Z,"    0"
2017-08-24T20:49:06.033Z,"    0"
2017-08-24T20:54:02.745Z,"    0"
2017-08-24T20:58:58.304Z,"    0"
2017-08-24T21:03:54.101Z,"    0"
2017-08-24T21:08:49.976Z,"    0"
2017-08-24T21:13:45.926Z,"    0"
2017-08-24T21:18:42.798Z,"    0"
2017-08-24T21:23:39.258Z,"    0"
2017-08-24T21:28:34.846Z,"    0"
2017-08-24T21:33:30.725Z,"    0"
2017-08-24T21:38:26.716Z,"    0"
2017-08-24T21:43:22.628Z,"    0"
2017-08-24T21:48:18.452Z,"    0"
2017-08-24T21:53:15.180Z,"    0"
2017-08-24T21:58:10.859Z,"    0"
2017-08-24T22:03:07.752Z,"    0"
2017-08-24T22:08:03.371Z,"    0"
2017-08-24T22:12:59.387Z,"    0"
2017-08-24T22:17:55.557Z,"    0"
2017-08-24T22:22:52.014Z,"    0"
2017-08-24T22:27:48.147Z,"    0"
2017-08-24T22:32:44.372Z,"    0"
2017-08-24T22:37:40.350Z,"    0"
2017-08-24T22:42:37.180Z,"    0"
2017-08-24T22:47:34.054Z,"    0"
2017-08-24T22:52:30.388Z,"    0"
2017-08-24T22:57:27.846Z,"    0"
2017-08-24T23:02:23.690Z,"    0"
2017-08-24T23:07:19.507Z,"    0"
2017-08-24T23:12:15.304Z,"    0"
2017-08-24T23:17:12.086Z,"    0"
2017-08-24T23:22:07.974Z,"    0"
2017-08-24T23:27:03.566Z,"    0"
2017-08-24T23:31:59.132Z,"    0"
2017-08-24T23:36:55.850Z,"    0"
2017-08-24T23:41:52.813Z,"    0"
2017-08-24T23:46:48.306Z,"    0"
2017-08-24T23:51:45.185Z,"    0"
2017-08-24T23:56:41.140Z,"    0"
